sensor_id;sensor_type;location;lat;lon;timestamp;P1;durP1;ratioP1;P2;durP2;ratioP2
10013;SDS011;45684;48.358;10.746;2023-01-26T00:02:12;16.07;;;9.73;;
10013;SDS011;45684;48.358;10.746;2023-01-26T00:04:40;13.93;;;8.83;;
10013;SDS011;45684;48.358;10.746;2023-01-26T00:07:07;14.03;;;8.63;;
10013;SDS011;45684;48.358;10.746;2023-01-26T00:09:35;12.77;;;8.00;;
10013;SDS011;45684;48.358;10.746;2023-01-26T00:12:03;15.33;;;9.47;;
10013;SDS011;45684;48.358;10.746;2023-01-26T00:14:32;11.07;;;7.43;;
10013;SDS011;45684;48.358;10.746;2023-01-26T00:17:16;13.10;;;8.83;;
10013;SDS011;45684;48.358;10.746;2023-01-26T00:19:52;14.97;;;8.37;;
10013;SDS011;45684;48.358;10.746;2023-01-26T00:22:20;15.90;;;9.23;;
10013;SDS011;45684;48.358;10.746;2023-01-26T00:24:48;12.43;;;8.70;;
10013;SDS011;45684;48.358;10.746;2023-01-26T00:27:16;13.03;;;8.30;;
10013;SDS011;45684;48.358;10.746;2023-01-26T00:29:45;13.67;;;8.67;;
10013;SDS011;45684;48.358;10.746;2023-01-26T00:32:14;15.87;;;9.37;;
10013;SDS011;45684;48.358;10.746;2023-01-26T00:34:42;14.57;;;9.57;;
10013;SDS011;45684;48.358;10.746;2023-01-26T00:37:09;13.80;;;9.20;;
10013;SDS011;45684;48.358;10.746;2023-01-26T00:39:37;14.33;;;8.80;;
10013;SDS011;45684;48.358;10.746;2023-01-26T00:42:05;16.83;;;10.40;;
10013;SDS011;45684;48.358;10.746;2023-01-26T00:44:36;14.80;;;9.20;;
10013;SDS011;45684;48.358;10.746;2023-01-26T00:47:06;15.77;;;9.47;;
10013;SDS011;45684;48.358;10.746;2023-01-26T00:49:35;14.87;;;9.40;;
10013;SDS011;45684;48.358;10.746;2023-01-26T00:52:04;17.37;;;9.83;;
10013;SDS011;45684;48.358;10.746;2023-01-26T00:54:32;15.63;;;10.13;;
10013;SDS011;45684;48.358;10.746;2023-01-26T00:57:00;18.43;;;10.37;;
10013;SDS011;45684;48.358;10.746;2023-01-26T00:59:28;16.73;;;10.20;;
10013;SDS011;45684;48.358;10.746;2023-01-26T01:01:57;15.60;;;8.53;;
10013;SDS011;45684;48.358;10.746;2023-01-26T01:04:28;17.27;;;9.97;;
10013;SDS011;45684;48.358;10.746;2023-01-26T01:06:59;18.00;;;10.53;;
10013;SDS011;45684;48.358;10.746;2023-01-26T01:09:27;19.27;;;10.57;;
10013;SDS011;45684;48.358;10.746;2023-01-26T01:11:55;16.67;;;9.77;;
10013;SDS011;45684;48.358;10.746;2023-01-26T01:14:23;14.97;;;9.37;;
10013;SDS011;45684;48.358;10.746;2023-01-26T01:16:50;16.13;;;10.07;;
10013;SDS011;45684;48.358;10.746;2023-01-26T01:19:18;19.40;;;10.23;;
10013;SDS011;45684;48.358;10.746;2023-01-26T01:21:48;15.30;;;9.43;;
10013;SDS011;45684;48.358;10.746;2023-01-26T01:24:15;17.43;;;10.10;;
10013;SDS011;45684;48.358;10.746;2023-01-26T01:26:43;17.07;;;10.20;;
10013;SDS011;45684;48.358;10.746;2023-01-26T01:29:12;17.23;;;10.40;;
10013;SDS011;45684;48.358;10.746;2023-01-26T01:31:40;18.10;;;10.50;;
10013;SDS011;45684;48.358;10.746;2023-01-26T01:34:09;16.40;;;9.73;;
10013;SDS011;45684;48.358;10.746;2023-01-26T01:36:37;19.00;;;11.63;;
10013;SDS011;45684;48.358;10.746;2023-01-26T01:39:06;20.47;;;10.67;;
10013;SDS011;45684;48.358;10.746;2023-01-26T01:41:34;18.33;;;10.57;;
10013;SDS011;45684;48.358;10.746;2023-01-26T01:44:11;19.17;;;9.70;;
10013;SDS011;45684;48.358;10.746;2023-01-26T01:46:42;17.50;;;10.17;;
10013;SDS011;45684;48.358;10.746;2023-01-26T01:49:16;22.87;;;11.63;;
10013;SDS011;45684;48.358;10.746;2023-01-26T01:51:47;20.07;;;10.73;;
10013;SDS011;45684;48.358;10.746;2023-01-26T01:54:23;19.03;;;11.27;;
10013;SDS011;45684;48.358;10.746;2023-01-26T01:56:56;16.77;;;10.57;;
10013;SDS011;45684;48.358;10.746;2023-01-26T01:59:27;21.67;;;11.23;;
10013;SDS011;45684;48.358;10.746;2023-01-26T02:01:57;19.53;;;11.60;;
10013;SDS011;45684;48.358;10.746;2023-01-26T02:04:25;21.47;;;11.50;;
10013;SDS011;45684;48.358;10.746;2023-01-26T02:06:55;17.67;;;9.63;;
10013;SDS011;45684;48.358;10.746;2023-01-26T02:09:27;18.63;;;10.70;;
10013;SDS011;45684;48.358;10.746;2023-01-26T02:12:16;16.47;;;9.57;;
10013;SDS011;45684;48.358;10.746;2023-01-26T02:14:47;20.00;;;10.93;;
10013;SDS011;45684;48.358;10.746;2023-01-26T02:17:16;20.87;;;11.57;;
10013;SDS011;45684;48.358;10.746;2023-01-26T02:19:45;19.03;;;10.03;;
10013;SDS011;45684;48.358;10.746;2023-01-26T02:22:22;14.83;;;9.37;;
10013;SDS011;45684;48.358;10.746;2023-01-26T02:24:57;15.77;;;8.70;;
10013;SDS011;45684;48.358;10.746;2023-01-26T02:27:32;17.77;;;10.33;;
10013;SDS011;45684;48.358;10.746;2023-01-26T02:30:00;21.37;;;11.60;;
10013;SDS011;45684;48.358;10.746;2023-01-26T02:32:30;17.97;;;10.90;;
10013;SDS011;45684;48.358;10.746;2023-01-26T02:34:58;20.57;;;10.93;;
10013;SDS011;45684;48.358;10.746;2023-01-26T02:37:26;18.27;;;10.53;;
10013;SDS011;45684;48.358;10.746;2023-01-26T02:39:55;19.33;;;11.10;;
10013;SDS011;45684;48.358;10.746;2023-01-26T02:42:29;21.83;;;11.13;;
10013;SDS011;45684;48.358;10.746;2023-01-26T02:45:09;18.43;;;10.70;;
10013;SDS011;45684;48.358;10.746;2023-01-26T02:47:40;19.20;;;10.30;;
10013;SDS011;45684;48.358;10.746;2023-01-26T02:50:10;20.97;;;10.90;;
10013;SDS011;45684;48.358;10.746;2023-01-26T02:52:38;22.37;;;11.40;;
10013;SDS011;45684;48.358;10.746;2023-01-26T02:55:12;20.90;;;11.67;;
10013;SDS011;45684;48.358;10.746;2023-01-26T02:57:51;23.10;;;12.13;;
10013;SDS011;45684;48.358;10.746;2023-01-26T03:00:22;21.67;;;11.47;;
10013;SDS011;45684;48.358;10.746;2023-01-26T03:02:52;20.30;;;11.43;;
10013;SDS011;45684;48.358;10.746;2023-01-26T03:05:23;20.17;;;11.00;;
10013;SDS011;45684;48.358;10.746;2023-01-26T03:07:52;18.43;;;11.47;;
10013;SDS011;45684;48.358;10.746;2023-01-26T03:10:23;18.83;;;10.70;;
10013;SDS011;45684;48.358;10.746;2023-01-26T03:12:52;18.57;;;10.30;;
10013;SDS011;45684;48.358;10.746;2023-01-26T03:15:21;17.90;;;10.53;;
10013;SDS011;45684;48.358;10.746;2023-01-26T03:18:11;18.97;;;10.63;;
10013;SDS011;45684;48.358;10.746;2023-01-26T03:20:58;17.23;;;10.17;;
10013;SDS011;45684;48.358;10.746;2023-01-26T03:23:44;18.50;;;10.90;;
10013;SDS011;45684;48.358;10.746;2023-01-26T03:26:31;18.03;;;10.97;;
10013;SDS011;45684;48.358;10.746;2023-01-26T03:29:17;20.87;;;10.87;;
10013;SDS011;45684;48.358;10.746;2023-01-26T03:31:47;18.87;;;10.70;;
10013;SDS011;45684;48.358;10.746;2023-01-26T03:34:16;19.77;;;11.00;;
10013;SDS011;45684;48.358;10.746;2023-01-26T03:36:46;17.37;;;10.53;;
10013;SDS011;45684;48.358;10.746;2023-01-26T03:39:16;20.47;;;11.33;;
10013;SDS011;45684;48.358;10.746;2023-01-26T03:42:02;18.00;;;10.37;;
10013;SDS011;45684;48.358;10.746;2023-01-26T03:44:48;18.37;;;10.07;;
10013;SDS011;45684;48.358;10.746;2023-01-26T03:47:37;19.37;;;10.77;;
10013;SDS011;45684;48.358;10.746;2023-01-26T03:50:23;16.40;;;9.73;;
10013;SDS011;45684;48.358;10.746;2023-01-26T03:53:12;16.47;;;10.00;;
10013;SDS011;45684;48.358;10.746;2023-01-26T03:55:58;18.43;;;10.47;;
10013;SDS011;45684;48.358;10.746;2023-01-26T03:58:48;16.63;;;9.40;;
10013;SDS011;45684;48.358;10.746;2023-01-26T04:01:21;18.47;;;10.07;;
10013;SDS011;45684;48.358;10.746;2023-01-26T04:03:56;20.20;;;10.60;;
10013;SDS011;45684;48.358;10.746;2023-01-26T04:06:44;17.87;;;10.53;;
10013;SDS011;45684;48.358;10.746;2023-01-26T04:09:30;15.43;;;10.07;;
10013;SDS011;45684;48.358;10.746;2023-01-26T04:11:59;18.57;;;10.37;;
10013;SDS011;45684;48.358;10.746;2023-01-26T04:14:28;19.70;;;10.30;;
10013;SDS011;45684;48.358;10.746;2023-01-26T04:17:20;17.47;;;10.10;;
10013;SDS011;45684;48.358;10.746;2023-01-26T04:20:07;18.30;;;9.97;;
10013;SDS011;45684;48.358;10.746;2023-01-26T04:22:54;18.07;;;10.40;;
10013;SDS011;45684;48.358;10.746;2023-01-26T04:25:22;17.33;;;10.33;;
10013;SDS011;45684;48.358;10.746;2023-01-26T04:27:50;18.90;;;11.00;;
10013;SDS011;45684;48.358;10.746;2023-01-26T04:30:18;18.33;;;10.50;;
10013;SDS011;45684;48.358;10.746;2023-01-26T04:32:50;16.57;;;10.33;;
10013;SDS011;45684;48.358;10.746;2023-01-26T04:35:19;17.37;;;10.23;;
10013;SDS011;45684;48.358;10.746;2023-01-26T04:37:47;18.47;;;10.00;;
10013;SDS011;45684;48.358;10.746;2023-01-26T04:40:15;16.80;;;10.20;;
10013;SDS011;45684;48.358;10.746;2023-01-26T04:42:44;19.00;;;10.30;;
10013;SDS011;45684;48.358;10.746;2023-01-26T04:45:12;21.97;;;10.97;;
10013;SDS011;45684;48.358;10.746;2023-01-26T04:47:42;18.50;;;10.23;;
10013;SDS011;45684;48.358;10.746;2023-01-26T04:50:11;19.53;;;10.67;;
10013;SDS011;45684;48.358;10.746;2023-01-26T04:52:40;19.60;;;10.73;;
10013;SDS011;45684;48.358;10.746;2023-01-26T04:55:08;17.63;;;11.17;;
10013;SDS011;45684;48.358;10.746;2023-01-26T04:57:39;16.53;;;10.30;;
10013;SDS011;45684;48.358;10.746;2023-01-26T05:00:09;14.80;;;9.73;;
10013;SDS011;45684;48.358;10.746;2023-01-26T05:02:39;17.37;;;10.23;;
10013;SDS011;45684;48.358;10.746;2023-01-26T05:05:08;19.03;;;11.60;;
10013;SDS011;45684;48.358;10.746;2023-01-26T05:07:36;16.33;;;10.47;;
10013;SDS011;45684;48.358;10.746;2023-01-26T05:10:06;17.63;;;10.47;;
10013;SDS011;45684;48.358;10.746;2023-01-26T05:12:43;18.47;;;11.20;;
10013;SDS011;45684;48.358;10.746;2023-01-26T05:15:29;17.60;;;10.07;;
10013;SDS011;45684;48.358;10.746;2023-01-26T05:18:16;15.40;;;9.90;;
10013;SDS011;45684;48.358;10.746;2023-01-26T05:20:46;16.40;;;10.67;;
10013;SDS011;45684;48.358;10.746;2023-01-26T05:23:16;17.43;;;10.27;;
10013;SDS011;45684;48.358;10.746;2023-01-26T05:26:04;18.83;;;10.90;;
10013;SDS011;45684;48.358;10.746;2023-01-26T05:28:48;20.67;;;12.10;;
10013;SDS011;45684;48.358;10.746;2023-01-26T05:31:16;26.17;;;12.80;;
10013;SDS011;45684;48.358;10.746;2023-01-26T05:33:44;20.23;;;12.60;;
10013;SDS011;45684;48.358;10.746;2023-01-26T05:36:17;16.47;;;10.13;;
10013;SDS011;45684;48.358;10.746;2023-01-26T05:38:45;16.30;;;10.20;;
10013;SDS011;45684;48.358;10.746;2023-01-26T05:41:17;15.43;;;9.47;;
10013;SDS011;45684;48.358;10.746;2023-01-26T05:44:03;17.60;;;9.33;;
10013;SDS011;45684;48.358;10.746;2023-01-26T05:46:39;24.67;;;14.10;;
10013;SDS011;45684;48.358;10.746;2023-01-26T05:49:07;28.73;;;15.70;;
10013;SDS011;45684;48.358;10.746;2023-01-26T05:51:35;28.33;;;15.70;;
10013;SDS011;45684;48.358;10.746;2023-01-26T05:54:04;25.00;;;14.37;;
10013;SDS011;45684;48.358;10.746;2023-01-26T05:56:34;33.77;;;18.03;;
10013;SDS011;45684;48.358;10.746;2023-01-26T05:59:04;44.20;;;23.67;;
10013;SDS011;45684;48.358;10.746;2023-01-26T06:01:32;32.53;;;19.43;;
10013;SDS011;45684;48.358;10.746;2023-01-26T06:04:04;26.63;;;15.10;;
10013;SDS011;45684;48.358;10.746;2023-01-26T06:06:44;19.10;;;11.57;;
10013;SDS011;45684;48.358;10.746;2023-01-26T06:09:29;16.43;;;10.17;;
10013;SDS011;45684;48.358;10.746;2023-01-26T06:12:12;16.30;;;9.80;;
10013;SDS011;45684;48.358;10.746;2023-01-26T06:14:57;35.73;;;18.53;;
10013;SDS011;45684;48.358;10.746;2023-01-26T06:17:33;26.83;;;14.80;;
10013;SDS011;45684;48.358;10.746;2023-01-26T06:20:04;18.37;;;10.87;;
10013;SDS011;45684;48.358;10.746;2023-01-26T06:22:33;19.50;;;10.20;;
10013;SDS011;45684;48.358;10.746;2023-01-26T06:25:01;18.23;;;10.23;;
10013;SDS011;45684;48.358;10.746;2023-01-26T06:27:30;19.67;;;10.03;;
10013;SDS011;45684;48.358;10.746;2023-01-26T06:30:02;25.80;;;16.23;;
10013;SDS011;45684;48.358;10.746;2023-01-26T06:32:32;24.27;;;14.20;;
10013;SDS011;45684;48.358;10.746;2023-01-26T06:34:59;19.87;;;11.27;;
10013;SDS011;45684;48.358;10.746;2023-01-26T06:37:28;17.27;;;10.30;;
10013;SDS011;45684;48.358;10.746;2023-01-26T06:39:56;27.87;;;16.97;;
10013;SDS011;45684;48.358;10.746;2023-01-26T06:42:24;22.10;;;13.07;;
10013;SDS011;45684;48.358;10.746;2023-01-26T06:44:53;19.93;;;10.73;;
10013;SDS011;45684;48.358;10.746;2023-01-26T06:47:23;17.97;;;10.13;;
10013;SDS011;45684;48.358;10.746;2023-01-26T06:49:51;17.63;;;10.40;;
10013;SDS011;45684;48.358;10.746;2023-01-26T06:52:25;13.90;;;9.23;;
10013;SDS011;45684;48.358;10.746;2023-01-26T06:55:01;17.83;;;9.70;;
10013;SDS011;45684;48.358;10.746;2023-01-26T06:57:44;17.10;;;9.77;;
10013;SDS011;45684;48.358;10.746;2023-01-26T07:00:46;15.67;;;9.47;;
10013;SDS011;45684;48.358;10.746;2023-01-26T07:03:23;17.07;;;9.63;;
10013;SDS011;45684;48.358;10.746;2023-01-26T07:05:51;17.63;;;10.27;;
10013;SDS011;45684;48.358;10.746;2023-01-26T07:08:19;16.57;;;9.60;;
10013;SDS011;45684;48.358;10.746;2023-01-26T07:10:48;16.40;;;9.57;;
10013;SDS011;45684;48.358;10.746;2023-01-26T07:13:16;17.17;;;10.27;;
10013;SDS011;45684;48.358;10.746;2023-01-26T07:15:45;16.27;;;9.80;;
10013;SDS011;45684;48.358;10.746;2023-01-26T07:18:13;18.80;;;10.20;;
10013;SDS011;45684;48.358;10.746;2023-01-26T07:20:41;14.80;;;8.90;;
10013;SDS011;45684;48.358;10.746;2023-01-26T07:23:09;15.83;;;9.87;;
10013;SDS011;45684;48.358;10.746;2023-01-26T07:25:37;18.13;;;9.67;;
10013;SDS011;45684;48.358;10.746;2023-01-26T07:28:09;16.93;;;10.47;;
10013;SDS011;45684;48.358;10.746;2023-01-26T07:30:37;19.37;;;10.17;;
10013;SDS011;45684;48.358;10.746;2023-01-26T07:33:06;19.17;;;10.73;;
10013;SDS011;45684;48.358;10.746;2023-01-26T07:35:34;16.40;;;9.77;;
10013;SDS011;45684;48.358;10.746;2023-01-26T07:38:02;15.57;;;8.77;;
10013;SDS011;45684;48.358;10.746;2023-01-26T07:40:30;18.37;;;9.63;;
10013;SDS011;45684;48.358;10.746;2023-01-26T07:42:58;18.83;;;10.43;;
10013;SDS011;45684;48.358;10.746;2023-01-26T07:45:45;17.37;;;9.97;;
10013;SDS011;45684;48.358;10.746;2023-01-26T07:48:14;16.63;;;9.70;;
10013;SDS011;45684;48.358;10.746;2023-01-26T07:50:42;16.13;;;9.77;;
10013;SDS011;45684;48.358;10.746;2023-01-26T07:53:10;18.07;;;10.03;;
10013;SDS011;45684;48.358;10.746;2023-01-26T07:55:40;15.37;;;9.20;;
10013;SDS011;45684;48.358;10.746;2023-01-26T07:58:09;17.07;;;10.03;;
10013;SDS011;45684;48.358;10.746;2023-01-26T08:00:38;17.00;;;10.87;;
10013;SDS011;45684;48.358;10.746;2023-01-26T08:03:06;18.80;;;11.07;;
10013;SDS011;45684;48.358;10.746;2023-01-26T08:05:35;17.70;;;11.07;;
10013;SDS011;45684;48.358;10.746;2023-01-26T08:08:04;16.83;;;9.43;;
10013;SDS011;45684;48.358;10.746;2023-01-26T08:10:32;15.07;;;9.07;;
10013;SDS011;45684;48.358;10.746;2023-01-26T08:13:00;17.43;;;10.20;;
10013;SDS011;45684;48.358;10.746;2023-01-26T08:15:28;18.53;;;10.67;;
10013;SDS011;45684;48.358;10.746;2023-01-26T08:17:56;18.27;;;11.40;;
10013;SDS011;45684;48.358;10.746;2023-01-26T08:20:26;16.57;;;10.13;;
10013;SDS011;45684;48.358;10.746;2023-01-26T08:22:55;17.13;;;9.77;;
10013;SDS011;45684;48.358;10.746;2023-01-26T08:25:25;17.97;;;10.53;;
10013;SDS011;45684;48.358;10.746;2023-01-26T08:27:53;16.37;;;9.77;;
10013;SDS011;45684;48.358;10.746;2023-01-26T08:30:21;20.07;;;9.70;;
10013;SDS011;45684;48.358;10.746;2023-01-26T08:32:49;17.40;;;9.77;;
10013;SDS011;45684;48.358;10.746;2023-01-26T08:35:17;16.97;;;10.07;;
10013;SDS011;45684;48.358;10.746;2023-01-26T08:37:45;17.87;;;10.53;;
10013;SDS011;45684;48.358;10.746;2023-01-26T08:40:14;21.07;;;10.93;;
10013;SDS011;45684;48.358;10.746;2023-01-26T08:42:42;15.70;;;9.50;;
10013;SDS011;45684;48.358;10.746;2023-01-26T08:45:10;15.87;;;9.83;;
10013;SDS011;45684;48.358;10.746;2023-01-26T08:47:38;18.67;;;9.93;;
10013;SDS011;45684;48.358;10.746;2023-01-26T08:50:06;15.83;;;9.67;;
10013;SDS011;45684;48.358;10.746;2023-01-26T08:52:35;17.27;;;10.63;;
10013;SDS011;45684;48.358;10.746;2023-01-26T08:55:04;17.57;;;10.07;;
10013;SDS011;45684;48.358;10.746;2023-01-26T08:57:33;15.17;;;10.00;;
10013;SDS011;45684;48.358;10.746;2023-01-26T09:00:02;17.23;;;10.27;;
10013;SDS011;45684;48.358;10.746;2023-01-26T09:02:30;16.87;;;9.67;;
10013;SDS011;45684;48.358;10.746;2023-01-26T09:04:58;15.07;;;9.03;;
10013;SDS011;45684;48.358;10.746;2023-01-26T09:07:26;14.97;;;9.37;;
10013;SDS011;45684;48.358;10.746;2023-01-26T09:09:54;17.17;;;9.70;;
10013;SDS011;45684;48.358;10.746;2023-01-26T09:12:21;18.10;;;9.47;;
10013;SDS011;45684;48.358;10.746;2023-01-26T09:14:51;16.67;;;9.13;;
10013;SDS011;45684;48.358;10.746;2023-01-26T09:17:18;14.90;;;9.33;;
10013;SDS011;45684;48.358;10.746;2023-01-26T09:19:46;14.77;;;9.00;;
10013;SDS011;45684;48.358;10.746;2023-01-26T09:22:14;17.20;;;10.27;;
10013;SDS011;45684;48.358;10.746;2023-01-26T09:24:42;15.57;;;9.73;;
10013;SDS011;45684;48.358;10.746;2023-01-26T09:27:10;15.87;;;9.20;;
10013;SDS011;45684;48.358;10.746;2023-01-26T09:29:38;15.57;;;9.77;;
10013;SDS011;45684;48.358;10.746;2023-01-26T09:32:07;15.63;;;9.23;;
10013;SDS011;45684;48.358;10.746;2023-01-26T09:34:35;16.10;;;9.60;;
10013;SDS011;45684;48.358;10.746;2023-01-26T09:37:02;16.77;;;10.00;;
10013;SDS011;45684;48.358;10.746;2023-01-26T09:39:33;17.30;;;9.50;;
10013;SDS011;45684;48.358;10.746;2023-01-26T09:42:10;14.40;;;8.43;;
10013;SDS011;45684;48.358;10.746;2023-01-26T09:44:47;14.07;;;8.60;;
10013;SDS011;45684;48.358;10.746;2023-01-26T09:47:24;13.97;;;8.83;;
10013;SDS011;45684;48.358;10.746;2023-01-26T09:49:58;12.30;;;8.20;;
10013;SDS011;45684;48.358;10.746;2023-01-26T09:52:38;13.03;;;8.27;;
10013;SDS011;45684;48.358;10.746;2023-01-26T09:55:16;13.40;;;8.10;;
10013;SDS011;45684;48.358;10.746;2023-01-26T09:57:48;14.13;;;8.70;;
10013;SDS011;45684;48.358;10.746;2023-01-26T10:00:19;13.77;;;8.03;;
10013;SDS011;45684;48.358;10.746;2023-01-26T10:02:52;11.77;;;7.67;;
10013;SDS011;45684;48.358;10.746;2023-01-26T10:05:31;14.03;;;8.70;;
10013;SDS011;45684;48.358;10.746;2023-01-26T10:10:50;12.17;;;7.83;;
10013;SDS011;45684;48.358;10.746;2023-01-26T10:13:20;12.60;;;8.37;;
10013;SDS011;45684;48.358;10.746;2023-01-26T10:15:51;14.07;;;9.17;;
10013;SDS011;45684;48.358;10.746;2023-01-26T10:18:27;13.47;;;9.33;;
10013;SDS011;45684;48.358;10.746;2023-01-26T10:20:58;15.23;;;10.33;;
10013;SDS011;45684;48.358;10.746;2023-01-26T10:23:29;13.97;;;9.03;;
10013;SDS011;45684;48.358;10.746;2023-01-26T10:26:01;16.43;;;10.07;;
10013;SDS011;45684;48.358;10.746;2023-01-26T10:31:39;15.17;;;10.13;;
10013;SDS011;45684;48.358;10.746;2023-01-26T10:34:09;15.23;;;9.10;;
10013;SDS011;45684;48.358;10.746;2023-01-26T10:36:42;17.23;;;9.43;;
10013;SDS011;45684;48.358;10.746;2023-01-26T10:39:12;13.40;;;8.73;;
10013;SDS011;45684;48.358;10.746;2023-01-26T10:41:54;13.77;;;9.20;;
10013;SDS011;45684;48.358;10.746;2023-01-26T10:44:24;16.57;;;9.43;;
10013;SDS011;45684;48.358;10.746;2023-01-26T10:47:03;16.43;;;9.77;;
10013;SDS011;45684;48.358;10.746;2023-01-26T10:49:35;16.47;;;9.97;;
10013;SDS011;45684;48.358;10.746;2023-01-26T10:52:04;15.40;;;9.90;;
10013;SDS011;45684;48.358;10.746;2023-01-26T10:54:33;17.73;;;11.10;;
10013;SDS011;45684;48.358;10.746;2023-01-26T10:57:02;14.83;;;9.40;;
10013;SDS011;45684;48.358;10.746;2023-01-26T10:59:33;14.93;;;8.83;;
10013;SDS011;45684;48.358;10.746;2023-01-26T11:02:17;14.00;;;9.43;;
10013;SDS011;45684;48.358;10.746;2023-01-26T11:05:03;14.87;;;8.83;;
10013;SDS011;45684;48.358;10.746;2023-01-26T11:07:41;11.60;;;7.67;;
10013;SDS011;45684;48.358;10.746;2023-01-26T11:10:18;11.90;;;7.80;;
10013;SDS011;45684;48.358;10.746;2023-01-26T11:12:50;12.27;;;7.57;;
10013;SDS011;45684;48.358;10.746;2023-01-26T11:15:33;10.33;;;7.33;;
10013;SDS011;45684;48.358;10.746;2023-01-26T11:18:06;11.50;;;7.33;;
10013;SDS011;45684;48.358;10.746;2023-01-26T11:20:48;10.80;;;7.10;;
10013;SDS011;45684;48.358;10.746;2023-01-26T11:23:23;9.70;;;6.67;;
10013;SDS011;45684;48.358;10.746;2023-01-26T11:29:10;14.13;;;7.30;;
10013;SDS011;45684;48.358;10.746;2023-01-26T11:31:56;11.17;;;6.43;;
10013;SDS011;45684;48.358;10.746;2023-01-26T11:34:35;9.87;;;6.77;;
10013;SDS011;45684;48.358;10.746;2023-01-26T11:37:23;9.17;;;6.60;;
10013;SDS011;45684;48.358;10.746;2023-01-26T11:40:13;8.67;;;5.57;;
10013;SDS011;45684;48.358;10.746;2023-01-26T11:43:02;11.37;;;7.93;;
10013;SDS011;45684;48.358;10.746;2023-01-26T11:45:49;12.70;;;8.80;;
10013;SDS011;45684;48.358;10.746;2023-01-26T11:48:28;10.73;;;6.83;;
10013;SDS011;45684;48.358;10.746;2023-01-26T11:51:11;8.80;;;5.73;;
10013;SDS011;45684;48.358;10.746;2023-01-26T11:54:04;9.03;;;5.93;;
10013;SDS011;45684;48.358;10.746;2023-01-26T11:56:44;7.90;;;5.40;;
10013;SDS011;45684;48.358;10.746;2023-01-26T11:59:16;8.07;;;5.73;;
10013;SDS011;45684;48.358;10.746;2023-01-26T12:01:50;8.40;;;6.27;;
10013;SDS011;45684;48.358;10.746;2023-01-26T12:04:23;9.03;;;6.30;;
10013;SDS011;45684;48.358;10.746;2023-01-26T12:06:51;7.77;;;5.43;;
10013;SDS011;45684;48.358;10.746;2023-01-26T12:09:29;9.77;;;6.10;;
10013;SDS011;45684;48.358;10.746;2023-01-26T12:12:03;7.90;;;5.50;;
10013;SDS011;45684;48.358;10.746;2023-01-26T12:14:36;8.13;;;5.77;;
10013;SDS011;45684;48.358;10.746;2023-01-26T12:17:14;8.67;;;5.90;;
10013;SDS011;45684;48.358;10.746;2023-01-26T12:19:51;7.10;;;5.10;;
10013;SDS011;45684;48.358;10.746;2023-01-26T12:22:30;8.67;;;5.80;;
10013;SDS011;45684;48.358;10.746;2023-01-26T12:25:04;8.40;;;5.33;;
10013;SDS011;45684;48.358;10.746;2023-01-26T12:27:46;7.23;;;5.00;;
10013;SDS011;45684;48.358;10.746;2023-01-26T12:30:24;7.53;;;5.23;;
10013;SDS011;45684;48.358;10.746;2023-01-26T12:32:59;6.97;;;5.40;;
10013;SDS011;45684;48.358;10.746;2023-01-26T12:35:31;7.53;;;5.37;;
10013;SDS011;45684;48.358;10.746;2023-01-26T12:38:09;7.90;;;4.93;;
10013;SDS011;45684;48.358;10.746;2023-01-26T12:40:47;8.80;;;4.87;;
10013;SDS011;45684;48.358;10.746;2023-01-26T12:43:30;8.17;;;4.77;;
10013;SDS011;45684;48.358;10.746;2023-01-26T12:46:14;8.17;;;4.93;;
10013;SDS011;45684;48.358;10.746;2023-01-26T12:48:44;8.50;;;5.60;;
10013;SDS011;45684;48.358;10.746;2023-01-26T12:51:17;7.17;;;5.00;;
10013;SDS011;45684;48.358;10.746;2023-01-26T12:53:51;6.90;;;4.80;;
10013;SDS011;45684;48.358;10.746;2023-01-26T12:56:26;7.43;;;4.90;;
10013;SDS011;45684;48.358;10.746;2023-01-26T12:58:59;6.60;;;4.40;;
10013;SDS011;45684;48.358;10.746;2023-01-26T13:02:07;6.43;;;4.47;;
10013;SDS011;45684;48.358;10.746;2023-01-26T13:04:38;6.90;;;4.70;;
10013;SDS011;45684;48.358;10.746;2023-01-26T13:10:09;6.57;;;4.87;;
10013;SDS011;45684;48.358;10.746;2023-01-26T13:12:58;6.87;;;4.90;;
10013;SDS011;45684;48.358;10.746;2023-01-26T13:15:29;7.47;;;4.90;;
10013;SDS011;45684;48.358;10.746;2023-01-26T13:17:59;14.17;;;9.00;;
10013;SDS011;45684;48.358;10.746;2023-01-26T13:23:39;8.37;;;5.60;;
10013;SDS011;45684;48.358;10.746;2023-01-26T13:26:13;6.03;;;4.33;;
10013;SDS011;45684;48.358;10.746;2023-01-26T13:28:44;8.07;;;6.50;;
10013;SDS011;45684;48.358;10.746;2023-01-26T13:31:27;8.80;;;6.60;;
10013;SDS011;45684;48.358;10.746;2023-01-26T13:34:02;7.93;;;5.90;;
10013;SDS011;45684;48.358;10.746;2023-01-26T13:36:35;7.13;;;4.83;;
10013;SDS011;45684;48.358;10.746;2023-01-26T13:39:09;6.77;;;4.63;;
10013;SDS011;45684;48.358;10.746;2023-01-26T13:41:44;9.90;;;5.50;;
10013;SDS011;45684;48.358;10.746;2023-01-26T13:44:15;10.53;;;6.67;;
10013;SDS011;45684;48.358;10.746;2023-01-26T13:46:47;9.93;;;6.00;;
10013;SDS011;45684;48.358;10.746;2023-01-26T13:49:35;11.97;;;6.57;;
10013;SDS011;45684;48.358;10.746;2023-01-26T13:52:18;13.03;;;6.70;;
10013;SDS011;45684;48.358;10.746;2023-01-26T13:54:50;28.53;;;13.80;;
10013;SDS011;45684;48.358;10.746;2023-01-26T13:57:19;30.17;;;14.93;;
10013;SDS011;45684;48.358;10.746;2023-01-26T13:59:50;27.37;;;13.40;;
10013;SDS011;45684;48.358;10.746;2023-01-26T14:02:20;11.20;;;7.07;;
10013;SDS011;45684;48.358;10.746;2023-01-26T14:04:51;8.07;;;5.43;;
10013;SDS011;45684;48.358;10.746;2023-01-26T14:07:21;7.70;;;5.37;;
10013;SDS011;45684;48.358;10.746;2023-01-26T14:09:54;5.97;;;4.37;;
10013;SDS011;45684;48.358;10.746;2023-01-26T14:12:27;7.13;;;4.57;;
10013;SDS011;45684;48.358;10.746;2023-01-26T14:15:02;7.77;;;5.03;;
10013;SDS011;45684;48.358;10.746;2023-01-26T14:17:33;6.53;;;4.30;;
10013;SDS011;45684;48.358;10.746;2023-01-26T14:20:16;7.50;;;4.40;;
10013;SDS011;45684;48.358;10.746;2023-01-26T14:23:00;5.67;;;4.23;;
10013;SDS011;45684;48.358;10.746;2023-01-26T14:25:29;5.93;;;4.40;;
10013;SDS011;45684;48.358;10.746;2023-01-26T14:27:57;6.10;;;4.40;;
10013;SDS011;45684;48.358;10.746;2023-01-26T14:30:27;8.53;;;4.33;;
10013;SDS011;45684;48.358;10.746;2023-01-26T14:32:57;6.50;;;4.63;;
10013;SDS011;45684;48.358;10.746;2023-01-26T14:35:30;6.50;;;4.30;;
10013;SDS011;45684;48.358;10.746;2023-01-26T14:38:05;7.23;;;4.67;;
10013;SDS011;45684;48.358;10.746;2023-01-26T14:40:44;8.37;;;4.63;;
10013;SDS011;45684;48.358;10.746;2023-01-26T14:43:13;5.23;;;4.10;;
10013;SDS011;45684;48.358;10.746;2023-01-26T14:45:44;6.57;;;4.40;;
10013;SDS011;45684;48.358;10.746;2023-01-26T14:48:16;5.30;;;4.10;;
10013;SDS011;45684;48.358;10.746;2023-01-26T14:50:48;7.17;;;4.87;;
10013;SDS011;45684;48.358;10.746;2023-01-26T14:53:16;8.13;;;4.70;;
10013;SDS011;45684;48.358;10.746;2023-01-26T14:55:46;6.53;;;4.70;;
10013;SDS011;45684;48.358;10.746;2023-01-26T14:58:18;6.57;;;4.60;;
10013;SDS011;45684;48.358;10.746;2023-01-26T15:00:51;10.20;;;5.90;;
10013;SDS011;45684;48.358;10.746;2023-01-26T15:03:22;13.57;;;7.20;;
10013;SDS011;45684;48.358;10.746;2023-01-26T15:06:04;8.13;;;5.57;;
10013;SDS011;45684;48.358;10.746;2023-01-26T15:08:51;8.00;;;5.03;;